Time;durP1;ratioP1;P1;durP2;ratioP2;P2;SDS_P1;SDS_P2;PMS_P1;PMS_P2;Temp;Humidity;BMP_temperature;BMP_pressure;BME280_temperature;BME280_humidity;BME280_pressure;Samples;Min_cycle;Max_cycle;Signal;HPM_P1;HPM_P2
2022/05/09 00:00:09;;;;;;;;;;;13.40;79.90;;;;;;8416813;28;20279;-74
2022/05/09 00:04:11;;;;;;;;;;;13.30;79.80;;;;;;8420853;28;19924;-73
2022/05/09 00:08:13;;;;;;;;;;;13.30;79.90;;;;;;8417899;28;19970;-74
2022/05/09 00:12:14;;;;;;;;;;;13.10;79.70;;;;;;8409333;28;19932;-73
2022/05/09 00:16:16;;;;;;;;;;;13.00;79.70;;;;;;8424678;28;19919;-74
2022/05/09 00:20:18;;;;;;;;;;;13.00;79.70;;;;;;8420919;28;19920;-73
2022/05/09 00:24:20;;;;;;;;;;;12.90;80.00;;;;;;8420091;28;19925;-73
2022/05/09 00:28:22;;;;;;;;;;;12.80;79.80;;;;;;8418389;28;19938;-73
2022/05/09 00:32:24;;;;;;;;;;;12.70;79.80;;;;;;8422795;28;19927;-74
2022/05/09 00:36:25;;;;;;;;;;;12.60;80.00;;;;;;8424921;28;19920;-73
2022/05/09 00:40:27;;;;;;;;;;;12.60;80.20;;;;;;8416050;28;19924;-74
2022/05/09 00:44:28;;;;;;;;;;;12.50;79.90;;;;;;8423257;28;19920;-73
2022/05/09 00:48:30;;;;;;;;;;;12.50;80.00;;;;;;8412849;28;19964;-73
2022/05/09 00:52:36;;;;;;;;;;;12.40;79.80;;;;;;8420263;28;19920;-74
2022/05/09 00:56:43;;;;;;;;;;;12.40;79.70;;;;;;8422024;28;19938;-74
2022/05/09 01:00:45;;;;;;;;;;;12.30;79.60;;;;;;8411899;28;20320;-73
2022/05/09 01:04:50;;;;;;;;;;;12.30;79.90;;;;;;8417862;28;20513;-73
2022/05/09 01:08:52;;;;;;;;;;;12.20;79.80;;;;;;8411738;28;19921;-73
2022/05/09 01:12:54;;;;;;;;;;;12.20;79.50;;;;;;8421493;28;19920;-73
2022/05/09 01:16:59;;;;;;;;;;;12.20;79.60;;;;;;8424627;28;19920;-73
2022/05/09 01:21:01;;;;;;;;;;;12.10;79.60;;;;;;8425539;28;19993;-73
2022/05/09 01:25:06;;;;;;;;;;;12.10;79.60;;;;;;8417781;28;19924;-73
2022/05/09 01:29:31;;;;;;;;;;;12.00;79.60;;;;;;8412936;28;19920;-74
2022/05/09 01:33:36;;;;;;;;;;;11.90;80.00;;;;;;8410088;28;19981;-73
2022/05/09 01:37:39;;;;;;;;;;;11.80;79.50;;;;;;8444445;27;19924;-73
2022/05/09 01:41:43;;;;;;;;;;;11.80;79.20;;;;;;8412422;28;20294;-73
2022/05/09 01:45:45;;;;;;;;;;;11.70;79.40;;;;;;8412246;28;19924;-73
2022/05/09 01:49:46;;;;;;;;;;;11.60;79.30;;;;;;8419216;28;19920;-73
2022/05/09 01:53:50;;;;;;;;;;;11.50;79.40;;;;;;8419493;28;19931;-73
2022/05/09 01:57:52;;;;;;;;;;;11.40;79.70;;;;;;8420782;28;20455;-73
2022/05/09 02:01:55;;;;;;;;;;;11.20;79.20;;;;;;8419090;28;19920;-73
2022/05/09 02:05:57;;;;;;;;;;;11.10;79.20;;;;;;8416602;28;20020;-73
2022/05/09 02:09:59;;;;;;;;;;;11.10;79.40;;;;;;8413760;28;19923;-73
2022/05/09 02:14:01;;;;;;;;;;;10.90;79.60;;;;;;8419263;28;19928;-73
2022/05/09 02:18:03;;;;;;;;;;;10.90;79.20;;;;;;8421860;28;20438;-73
2022/05/09 02:22:04;;;;;;;;;;;10.80;79.10;;;;;;8417581;28;20383;-73
2022/05/09 02:26:07;;;;;;;;;;;10.80;79.30;;;;;;8418828;28;19920;-73
2022/05/09 02:30:08;;;;;;;;;;;10.60;80.00;;;;;;8417055;28;19928;-73
2022/05/09 02:34:10;;;;;;;;;;;10.50;80.30;;;;;;8413577;28;19935;-73
2022/05/09 02:38:12;;;;;;;;;;;10.40;79.80;;;;;;8424816;28;19935;-73
2022/05/09 02:42:13;;;;;;;;;;;10.40;79.40;;;;;;8417734;28;19963;-73
2022/05/09 02:46:15;;;;;;;;;;;10.40;79.50;;;;;;8427887;28;19939;-73
2022/05/09 02:50:17;;;;;;;;;;;10.40;79.70;;;;;;8419707;28;19939;-73
2022/05/09 02:54:19;;;;;;;;;;;10.40;79.60;;;;;;8424669;28;19934;-73
2022/05/09 02:58:20;;;;;;;;;;;10.40;79.30;;;;;;8418101;28;20187;-73
2022/05/09 03:02:22;;;;;;;;;;;10.50;80.80;;;;;;8424041;28;19962;-74
2022/05/09 03:06:24;;;;;;;;;;;10.50;80.20;;;;;;8432961;28;19923;-73
2022/05/09 03:10:28;;;;;;;;;;;10.40;80.00;;;;;;8410617;28;19928;-73
2022/05/09 03:14:36;;;;;;;;;;;10.40;79.90;;;;;;8425895;28;20264;-73
2022/05/09 03:18:38;;;;;;;;;;;10.30;79.90;;;;;;8425650;28;19959;-73
2022/05/09 03:22:39;;;;;;;;;;;10.30;79.60;;;;;;8423332;28;19920;-74
2022/05/09 03:26:41;;;;;;;;;;;10.30;80.30;;;;;;8422730;28;19931;-73
2022/05/09 03:30:42;;;;;;;;;;;10.20;80.00;;;;;;8422703;28;19920;-73
2022/05/09 03:34:46;;;;;;;;;;;10.20;80.00;;;;;;8420001;28;19931;-73
2022/05/09 03:38:47;;;;;;;;;;;10.10;79.50;;;;;;8417762;28;19921;-73
2022/05/09 03:42:49;;;;;;;;;;;10.00;80.00;;;;;;8421956;28;19927;-73
2022/05/09 03:46:51;;;;;;;;;;;9.90;80.90;;;;;;8426486;28;19931;-74
2022/05/09 03:50:53;;;;;;;;;;;9.90;81.00;;;;;;8453094;27;19927;-73
2022/05/09 03:54:57;;;;;;;;;;;9.80;80.90;;;;;;8424948;28;19920;-74
2022/05/09 03:58:58;;;;;;;;;;;9.80;81.00;;;;;;8422215;28;19919;-73
2022/05/09 04:03:01;;;;;;;;;;;9.70;80.80;;;;;;8415178;28;19923;-73
2022/05/09 04:07:02;;;;;;;;;;;9.70;81.10;;;;;;8427096;28;20339;-73
2022/05/09 04:11:04;;;;;;;;;;;9.60;81.10;;;;;;8414860;28;19920;-73
2022/05/09 04:19:27;;;;;;;;;;;9.50;80.90;;;;;;8412934;28;19939;-73
2022/05/09 04:23:28;;;;;;;;;;;9.50;81.00;;;;;;8428631;28;19936;-73
2022/05/09 04:27:31;;;;;;;;;;;9.40;80.80;;;;;;8419189;28;19929;-73
2022/05/09 04:31:33;;;;;;;;;;;9.40;80.90;;;;;;8426250;28;20256;-73
2022/05/09 04:35:36;;;;;;;;;;;9.40;81.00;;;;;;8422157;28;19924;-74
2022/05/09 04:39:38;;;;;;;;;;;9.40;81.40;;;;;;8419887;28;20329;-74
2022/05/09 04:43:40;;;;;;;;;;;9.50;81.50;;;;;;8416610;28;19920;-73
2022/05/09 04:47:42;;;;;;;;;;;9.50;81.50;;;;;;8424708;28;19920;-73
2022/05/09 04:51:44;;;;;;;;;;;9.50;81.90;;;;;;8418219;28;20397;-74
2022/05/09 04:55:46;;;;;;;;;;;9.50;82.20;;;;;;8421477;28;19975;-73
2022/05/09 04:59:48;;;;;;;;;;;9.60;82.30;;;;;;8416703;28;19943;-73
2022/05/09 05:03:49;;;;;;;;;;;9.70;83.00;;;;;;8422203;28;19951;-73
2022/05/09 05:07:51;;;;;;;;;;;9.70;83.20;;;;;;8416750;28;19951;-74
2022/05/09 05:11:57;;;;;;;;;;;9.80;83.20;;;;;;8441202;27;19956;-74
2022/05/09 05:15:59;;;;;;;;;;;9.90;83.80;;;;;;8416657;28;19928;-74
2022/05/09 05:20:02;;;;;;;;;;;10.00;83.30;;;;;;8412767;28;19929;-74
2022/05/09 05:24:04;;;;;;;;;;;10.10;83.50;;;;;;8420417;28;19977;-73
2022/05/09 05:28:07;;;;;;;;;;;10.30;83.80;;;;;;8414105;28;20025;-73
2022/05/09 05:32:15;;;;;;;;;;;10.50;84.10;;;;;;8423668;28;19923;-74
2022/05/09 05:36:16;;;;;;;;;;;10.70;84.20;;;;;;8421334;28;20545;-73
2022/05/09 05:40:18;;;;;;;;;;;10.90;84.30;;;;;;8421255;28;19920;-74
2022/05/09 05:44:20;;;;;;;;;;;11.10;85.00;;;;;;8419312;28;19920;-73
2022/05/09 05:48:21;;;;;;;;;;;11.30;86.20;;;;;;8408957;28;19931;-73
2022/05/09 05:52:23;;;;;;;;;;;11.40;89.60;;;;;;8414326;28;20233;-73
2022/05/09 05:56:26;;;;;;;;;;;11.60;90.00;;;;;;8421398;28;20139;-73
2022/05/09 06:00:28;;;;;;;;;;;11.70;90.20;;;;;;8422529;28;19935;-73
2022/05/09 06:04:29;;;;;;;;;;;11.80;89.00;;;;;;8416726;28;19924;-73
2022/05/09 06:08:31;;;;;;;;;;;11.90;90.00;;;;;;8399486;28;19932;-74
2022/05/09 06:12:33;;;;;;;;;;;12.10;90.90;;;;;;8391853;28;19928;-73
2022/05/09 06:16:34;;;;;;;;;;;12.10;90.50;;;;;;8394329;28;19971;-73
2022/05/09 06:20:37;;;;;;;;;;;12.20;90.90;;;;;;8397122;28;19928;-74
2022/05/09 06:24:39;;;;;;;;;;;12.30;91.30;;;;;;8390530;28;19943;-75
2022/05/09 06:28:41;;;;;;;;;;;12.40;92.60;;;;;;8399097;28;19928;-74
2022/05/09 06:32:43;;;;;;;;;;;12.50;92.40;;;;;;8403797;28;19966;-74
2022/05/09 06:36:45;;;;;;;;;;;12.70;91.30;;;;;;8403229;28;19928;-75
2022/05/09 06:40:47;;;;;;;;;;;12.80;91.20;;;;;;8399951;28;20379;-74
2022/05/09 06:44:48;;;;;;;;;;;12.90;90.70;;;;;;8404707;28;19931;-74
2022/05/09 06:48:50;;;;;;;;;;;13.10;90.50;;;;;;8400567;28;19949;-74
2022/05/09 06:52:52;;;;;;;;;;;13.20;90.90;;;;;;8405706;28;19938;-74
2022/05/09 06:57:13;;;;;;;;;;;13.30;90.60;;;;;;8400047;28;20015;-74
2022/05/09 07:01:16;;;;;;;;;;;13.50;90.40;;;;;;8392094;28;20008;-74
2022/05/09 07:05:19;;;;;;;;;;;13.70;90.40;;;;;;8390737;28;19940;-74
2022/05/09 07:09:20;;;;;;;;;;;13.80;90.50;;;;;;8392058;28;20368;-73
2022/05/09 07:13:22;;;;;;;;;;;13.90;90.70;;;;;;8390424;28;19968;-74
2022/05/09 07:17:24;;;;;;;;;;;14.10;90.70;;;;;;8400732;28;19955;-74
2022/05/09 07:21:26;;;;;;;;;;;14.20;90.90;;;;;;8389451;28;19947;-74
2022/05/09 07:25:28;;;;;;;;;;;14.40;91.00;;;;;;8398030;28;19928;-74
2022/05/09 07:29:29;;;;;;;;;;;14.50;90.90;;;;;;8399183;28;19928;-74
2022/05/09 07:33:31;;;;;;;;;;;14.70;91.10;;;;;;8400612;28;19932;-73
2022/05/09 07:37:33;;;;;;;;;;;14.80;91.30;;;;;;8396716;28;20004;-74
2022/05/09 07:41:35;;;;;;;;;;;15.00;91.10;;;;;;8394562;28;20512;-74
2022/05/09 07:45:36;;;;;;;;;;;15.10;91.30;;;;;;8401972;28;20340;-74
2022/05/09 07:49:38;;;;;;;;;;;15.20;91.40;;;;;;8409036;28;19924;-74
2022/05/09 07:53:43;;;;;;;;;;;15.40;91.60;;;;;;8408841;28;19924;-74
2022/05/09 07:57:45;;;;;;;;;;;15.60;91.70;;;;;;8407808;28;19929;-74
2022/05/09 08:01:47;;;;;;;;;;;15.70;91.70;;;;;;8405078;28;20002;-74
2022/05/09 08:05:49;;;;;;;;;;;15.90;91.80;;;;;;8404831;28;19932;-74
2022/05/09 08:09:51;;;;;;;2.50;1.00;;;16.00;91.90;;;;;;8401378;28;19943;-74
2022/05/09 08:13:52;;;;;;;2.47;1.10;;;16.10;92.00;;;;;;8399317;28;20563;-74
2022/05/09 08:17:54;;;;;;;3.58;1.30;;;16.20;92.00;;;;;;8394549;28;20178;-74
2022/05/09 08:21:57;;;;;;;1.70;0.90;;;16.30;92.10;;;;;;8402976;28;20047;-74
2022/05/09 08:26:03;;;;;;;2.60;1.20;;;16.50;92.20;;;;;;8405285;28;20282;-75
2022/05/09 08:30:05;;;;;;;;;;;16.60;92.10;;;;;;8406025;28;19924;-75
2022/05/09 08:34:08;;;;;;;;;;;16.60;91.90;;;;;;8408898;28;19920;-75
2022/05/09 08:38:10;;;;;;;;;;;16.60;91.90;;;;;;8402332;28;19928;-73
2022/05/09 08:42:47;;;;;;;;;;;16.60;91.70;;;;;;8403534;28;20318;-74
2022/05/09 08:47:03;;;;;;;;;;;16.60;91.80;;;;;;8384661;28;19920;-74
2022/05/09 08:51:16;;;;;;;;;;;16.80;92.10;;;;;;8407656;28;19920;-73
2022/05/09 08:55:27;;;;;;;;;;;17.00;92.30;;;;;;8405554;28;19921;-74
2022/05/09 08:59:32;;;;;;;;;;;17.20;92.30;;;;;;8409129;28;19939;-74
2022/05/09 09:03:37;;;;;;;;;;;17.30;92.30;;;;;;8403304;28;24665;-73
2022/05/09 09:07:52;;;;;;;;;;;17.50;92.30;;;;;;8405086;28;19928;-73
2022/05/09 09:12:12;;;;;;;;;;;17.70;92.40;;;;;;8407557;28;19939;-74
2022/05/09 09:16:17;;;;;;;;;;;17.80;92.00;;;;;;8399451;28;19927;-74
2022/05/09 09:20:21;;;;;;;;;;;17.90;92.20;;;;;;8400070;28;19963;-74
2022/05/09 09:24:23;;;;;;;;;;;18.00;91.80;;;;;;8402463;28;19924;-74
2022/05/09 09:28:28;;;;;;;;;;;18.10;91.60;;;;;;8395391;28;20329;-74
2022/05/09 09:32:30;;;;;;;;;;;18.20;91.70;;;;;;8391879;28;19928;-74
2022/05/09 09:36:39;;;;;;;;;;;18.30;91.60;;;;;;8429598;27;19971;-75
2022/05/09 09:40:40;;;;;;;;;;;18.40;91.80;;;;;;8402933;28;20673;-75
2022/05/09 09:44:47;;;;;;;;;;;18.50;95.10;;;;;;8404079;28;19932;-75
2022/05/09 09:49:01;;;;;;;;;;;18.60;95.70;;;;;;8403437;28;19959;-74
2022/05/09 09:53:03;;;;;;;;;;;18.70;96.40;;;;;;8401933;28;19928;-75
2022/05/09 09:57:17;;;;;;;;;;;18.70;95.80;;;;;;8394871;28;19947;-76
2022/05/09 10:01:19;;;;;;;;;;;18.80;96.60;;;;;;8406417;28;19974;-74
2022/05/09 10:05:41;;;;;;;;;;;19.00;96.50;;;;;;8396264;28;19920;-74
2022/05/09 10:09:44;;;;;;;;;;;19.10;95.80;;;;;;8395729;28;19928;-74
2022/05/09 10:13:47;;;;;;;;;;;19.00;94.80;;;;;;8391967;28;19927;-74
2022/05/09 10:17:49;;;;;;;;;;;18.90;93.20;;;;;;8389455;28;19920;-74
2022/05/09 10:26:22;;;;;;;;;;;18.80;93.40;;;;;;8395263;28;19921;-74
2022/05/09 10:30:29;;;;;;;;;;;18.90;94.70;;;;;;8396711;28;19920;-74
2022/05/09 10:34:51;;;;;;;;;;;19.00;94.00;;;;;;8389760;28;20278;-74
2022/05/09 10:38:56;;;;;;;;;;;19.10;94.50;;;;;;8401261;28;19931;-74
2022/05/09 10:43:09;;;;;;;;;;;19.20;93.20;;;;;;8400934;28;19943;-74
2022/05/09 10:47:24;;;;;;;;;;;19.10;92.80;;;;;;8390093;28;19931;-75
2022/05/09 10:51:28;;;;;;;;;;;19.20;92.50;;;;;;8400227;28;19924;-74
2022/05/09 10:55:48;;;;;;;;;;;19.30;92.70;;;;;;8397999;28;19920;-74
2022/05/09 10:59:51;;;;;;;;;;;19.40;92.70;;;;;;8406067;28;20386;-75
2022/05/09 11:03:53;;;;;;;;;;;19.50;92.60;;;;;;8406666;28;19928;-74
2022/05/09 11:08:05;;;;;;;;;;;19.60;92.50;;;;;;8406443;28;20752;-74
2022/05/09 11:12:19;;;;;;;;;;;19.80;92.70;;;;;;8403879;28;19928;-74
2022/05/09 11:16:50;;;;;;;;;;;20.00;92.50;;;;;;8395403;28;19920;-74
2022/05/09 11:20:58;;;;;;;;;;;20.10;92.20;;;;;;8392329;28;20553;-75
2022/05/09 11:25:14;;;;;;;3.30;1.20;;;20.20;92.20;;;;;;8392354;28;19920;-75
2022/05/09 11:29:27;;;;;;;;;;;20.30;92.40;;;;;;8396231;28;20841;-74
2022/05/09 11:33:37;;;;;;;;;;;20.60;90.90;;;;;;8404196;28;20364;-75
2022/05/09 11:37:57;;;;;;;;;;;21.00;92.90;;;;;;8393218;28;19935;-74
2022/05/09 11:46:54;;;;;;;;;;;21.20;93.00;;;;;;8397714;28;19924;-74
2022/05/09 11:51:01;;;;;;;;;;;21.20;93.20;;;;;;8394761;28;19920;-74
2022/05/09 11:55:12;;;;;;;;;;;21.20;92.80;;;;;;8392284;28;19947;-74
2022/05/09 11:59:20;;;;;;;;;;;21.10;92.40;;;;;;8392264;28;19920;-74
2022/05/09 12:03:54;;;;;;;;;;;21.10;92.00;;;;;;8398215;28;19947;-74
2022/05/09 12:08:01;;;;;;;;;;;21.00;91.40;;;;;;8362239;28;20268;-74
2022/05/09 12:12:03;;;;;;;;;;;21.00;90.80;;;;;;8424889;27;19924;-75
2022/05/09 12:16:05;;;;;;;;;;;21.00;91.00;;;;;;8424994;27;19983;-75
2022/05/09 12:20:11;;;;;;;;;;;21.00;91.30;;;;;;8397351;28;19928;-75
2022/05/09 12:24:13;;;;;;;;;;;21.00;91.30;;;;;;8391533;28;21470;-75
2022/05/09 12:28:21;;;;;;;;;;;21.10;91.50;;;;;;8389098;28;20339;-75
2022/05/09 12:32:23;;;;;;;;;;;21.20;91.70;;;;;;8392952;28;19928;-75
2022/05/09 12:36:30;;;;;;;;;;;21.30;91.30;;;;;;8398625;28;20371;-75
2022/05/09 12:40:33;;;;;;;;;;;21.40;91.60;;;;;;8395792;28;20235;-74
2022/05/09 12:44:39;;;;;;;;;;;21.50;91.70;;;;;;8396522;28;20014;-74
2022/05/09 12:48:41;;;;;;;;;;;21.50;91.30;;;;;;8399277;28;19924;-75
2022/05/09 12:52:49;;;;;;;;;;;21.50;91.40;;;;;;8398401;28;20322;-75
2022/05/09 12:56:53;;;;;;;;;;;21.70;91.50;;;;;;8392127;28;20288;-74
2022/05/09 13:00:56;;;;;;;;;;;21.80;91.30;;;;;;8389781;28;20417;-74
2022/05/09 13:05:30;;;;;;;;;;;21.80;90.80;;;;;;8391590;28;20579;-74
2022/05/09 13:09:36;;;;;;;;;;;21.80;91.10;;;;;;8393217;28;19973;-74
2022/05/09 13:13:37;;;;;;;;;;;21.80;91.30;;;;;;8396412;28;19928;-74
2022/05/09 13:17:43;;;;;;;;;;;21.90;90.90;;;;;;8391458;28;19924;-74
2022/05/09 13:21:47;;;;;;;;;;;21.90;90.90;;;;;;8390891;28;20043;-74
2022/05/09 13:25:49;;;;;;;;;;;22.10;91.40;;;;;;8382240;28;19956;-74
2022/05/09 13:29:52;;;;;;;;;;;22.20;90.90;;;;;;8389538;28;19920;-74
2022/05/09 13:33:54;;;;;;;;;;;22.20;90.70;;;;;;8390685;28;19936;-74
2022/05/09 13:37:56;;;;;;;;;;;22.30;90.60;;;;;;8393478;28;19970;-74
2022/05/09 13:42:00;;;;;;;;;;;22.40;90.50;;;;;;8397520;28;19965;-75
2022/05/09 13:46:07;;;;;;;;;;;22.70;91.00;;;;;;8392286;28;19924;-75
2022/05/09 13:50:10;;;;;;;;;;;22.80;90.80;;;;;;8405490;28;19920;-75
2022/05/09 13:54:20;;;;;;;;;;;23.00;92.20;;;;;;8396803;28;19920;-75
2022/05/09 13:58:23;;;;;;;;;;;23.20;92.30;;;;;;8390815;28;20315;-74
2022/05/09 14:02:26;;;;;;;;;;;23.30;92.20;;;;;;8396175;28;19924;-74
2022/05/09 14:06:29;;;;;;;;;;;23.30;91.50;;;;;;8387823;28;19947;-74
2022/05/09 14:10:37;;;;;;;;;;;23.20;91.10;;;;;;8388167;28;19920;-74
2022/05/09 14:14:40;;;;;;;;;;;23.10;90.50;;;;;;8390125;28;20294;-74
2022/05/09 14:18:43;;;;;;;;;;;23.10;91.10;;;;;;8390274;28;19927;-75
2022/05/09 14:22:46;;;;;;;;;;;23.20;91.00;;;;;;8389052;28;20009;-74
2022/05/09 14:31:34;;;;;;;;;;;23.30;91.00;;;;;;8390075;28;19921;-75
2022/05/09 14:35:43;;;;;;;;;;;23.40;91.20;;;;;;8385151;27;19920;-74
2022/05/09 14:39:47;;;;;;;;;;;23.70;91.60;;;;;;8387361;28;19962;-73
2022/05/09 14:44:07;;;;;;;;;;;23.90;91.50;;;;;;8401467;28;19927;-74
2022/05/09 14:48:11;;;;;;;;;;;24.00;90.80;;;;;;8386768;28;19931;-71
2022/05/09 14:52:12;;;;;;;;;;;24.10;91.10;;;;;;8389390;28;20019;-72
2022/05/09 15:00:38;;;;;;;;;;;24.40;91.90;;;;;;8395692;28;20225;-74
2022/05/09 15:04:40;;;;;;;;;;;24.50;91.20;;;;;;8401050;28;19954;-74
2022/05/09 15:08:42;;;;;;;;;;;24.40;90.80;;;;;;8394303;28;19928;-74
2022/05/09 15:12:44;;;;;;;;;;;24.20;90.60;;;;;;8385379;28;19952;-75
2022/05/09 15:16:46;;;;;;;;;;;24.20;90.80;;;;;;8386168;28;19935;-74
2022/05/09 15:20:49;;;;;;;;;;;24.30;90.80;;;;;;8392978;28;20006;-74
2022/05/09 15:24:51;;;;;;;;;;;24.30;90.20;;;;;;8388307;28;19971;-74
2022/05/09 15:28:53;;;;;;;;;;;24.50;90.50;;;;;;8386846;28;19928;-74
2022/05/09 15:32:55;;;;;;;;;;;24.70;90.40;;;;;;8385038;28;19928;-74
2022/05/09 15:36:56;;;;;;;;;;;24.90;90.30;;;;;;8387270;28;20009;-74
2022/05/09 15:41:02;;;;;;;;;;;25.20;91.10;;;;;;8385853;28;19927;-74
2022/05/09 15:45:06;;;;;;;;;;;26.00;91.60;;;;;;8383974;28;19928;-74
2022/05/09 15:49:11;;;;;;;;;;;26.70;91.50;;;;;;8391306;28;19920;-74
2022/05/09 15:53:13;;;;;;;;;;;27.10;90.90;;;;;;8391501;28;19927;-75
2022/05/09 15:57:19;;;;;;;;;;;27.40;91.10;;;;;;8392694;28;20508;-74
2022/05/09 16:01:28;;;;;;;;;;;27.60;91.10;;;;;;8391709;28;20540;-74
2022/05/09 16:11:23;;;;;;;;;;;27.50;90.60;;;;;;8395175;28;19970;-74
2022/05/09 16:14:14;;;;;;;;;;;27.10;90.10;;;;;;8392560;28;19938;-71
2022/05/09 16:18:16;;;;;;;;;;;27.10;90.50;;;;;;8400566;28;19932;-72
2022/05/09 16:22:21;;;;;;;;;;;27.10;90.60;;;;;;8394118;28;19928;-72
2022/05/09 16:26:29;;;;;;;;;;;27.20;90.80;;;;;;8389494;28;19936;-71
2022/05/09 16:30:33;;;;;;;;;;;27.50;91.20;;;;;;8392464;28;19928;-71
2022/05/09 16:34:38;;;;;;;;;;;27.60;90.90;;;;;;8392278;28;19939;-72
2022/05/09 16:38:39;;;;;;;;;;;27.80;91.20;;;;;;8394911;28;19986;-72
2022/05/09 16:42:43;;;;;;;;;;;27.90;91.30;;;;;;8389413;28;20011;-72
2022/05/09 16:46:45;;;;;;;;;;;28.00;91.40;;;;;;8390573;28;19928;-72
2022/05/09 16:50:47;;;;;;;;;;;28.20;91.40;;;;;;8389644;28;19927;-72
2022/05/09 16:54:50;;;;;;;;;;;28.30;91.30;;;;;;8394698;28;19921;-72
2022/05/09 16:58:52;;;;;;;;;;;28.40;91.30;;;;;;8390364;28;19920;-72
2022/05/09 17:02:54;;;;;;;;;;;28.30;91.00;;;;;;8396301;28;20035;-74
2022/05/09 17:06:58;;;;;;;;;;;28.00;90.40;;;;;;8384362;28;19920;-75
2022/05/09 17:11:00;;;;;;;;;;;27.70;90.10;;;;;;8388311;28;19920;-74
2022/05/09 17:15:08;;;;;;;;;;;27.40;90.00;;;;;;8389139;28;25065;-74
2022/05/09 17:19:10;;;;;;;;;;;27.20;90.00;;;;;;8387446;28;25085;-74
2022/05/09 17:23:12;;;;;;;;;;;27.00;90.00;;;;;;8387803;28;19920;-74
2022/05/09 17:27:14;;;;;;;;;;;26.70;89.80;;;;;;8387450;28;20026;-74
2022/05/09 17:31:16;;;;;;;;;;;26.50;89.10;;;;;;8395605;28;20414;-74
2022/05/09 17:39:38;;;;;;;;;;;25.90;88.40;;;;;;8385042;28;20899;-73
2022/05/09 17:43:39;;;;;;;;;;;25.60;88.30;;;;;;8391344;28;19963;-74
2022/05/09 17:47:41;;;;;;;;;;;25.40;88.30;;;;;;8391111;28;19920;-74
2022/05/09 17:51:44;;;;;;;3.55;1.33;;;25.20;88.00;;;;;;8389516;28;19928;-73
2022/05/09 17:55:51;;;;;;;11.77;1.73;;;25.00;87.70;;;;;;8387109;28;20044;-73
2022/05/09 17:59:53;;;;;;;;;;;24.80;87.60;;;;;;8390839;28;20047;-74
2022/05/09 18:03:54;;;;;;;;;;;24.50;87.30;;;;;;8421860;27;19931;-73
2022/05/09 18:07:56;;;;;;;;;;;24.30;87.30;;;;;;8388967;28;19928;-73
2022/05/09 18:12:00;;;;;;;;;;;24.10;87.50;;;;;;8384651;28;20379;-73
2022/05/09 18:16:02;;;;;;;;;;;23.90;87.40;;;;;;8386873;28;19927;-73
2022/05/09 18:20:09;;;;;;;;;;;23.80;87.40;;;;;;8388876;28;19950;-74
2022/05/09 18:24:13;;;;;;;;;;;23.60;87.20;;;;;;8393335;28;19921;-74
2022/05/09 18:28:15;;;;;;;;;;;23.50;88.10;;;;;;8389257;28;19967;-74
2022/05/09 18:32:18;;;;;;;;;;;23.30;87.10;;;;;;8419993;27;19924;-73
2022/05/09 18:36:20;;;;;;;;;;;23.20;86.80;;;;;;8382971;28;19924;-74
2022/05/09 18:40:23;;;;;;;;;;;23.00;86.70;;;;;;8372361;28;20158;-73
2022/05/09 18:44:25;;;;;;;;;;;22.90;86.70;;;;;;8416073;27;19920;-74
2022/05/09 18:48:27;;;;;;;;;;;22.80;86.90;;;;;;8388577;28;19970;-74
2022/05/09 18:52:36;;;;;;;;;;;22.60;86.80;;;;;;8396325;28;19924;-74
2022/05/09 18:56:37;;;;;;;;;;;22.40;86.70;;;;;;8401161;28;19920;-74
2022/05/09 19:00:39;;;;;;;;;;;22.30;86.70;;;;;;8404169;28;19935;-73
2022/05/09 19:04:41;;;;;;;;;;;22.20;86.80;;;;;;8393404;28;19946;-73
2022/05/09 19:08:44;;;;;;;;;;;22.00;86.60;;;;;;8397148;28;19920;-74
2022/05/09 19:12:45;;;;;;;;;;;21.90;86.50;;;;;;8393748;28;19966;-74
2022/05/09 19:16:48;;;;;;;;;;;21.80;86.50;;;;;;8428163;27;20352;-73
2022/05/09 19:20:49;;;;;;;;;;;21.70;86.70;;;;;;8396960;28;20287;-74
2022/05/09 19:24:51;;;;;;;;;;;21.60;88.50;;;;;;8403093;28;19928;-74
2022/05/09 19:28:55;;;;;;;;;;;21.40;88.90;;;;;;8403197;28;19928;-73
2022/05/09 19:32:58;;;;;;;;;;;21.30;88.30;;;;;;8411620;28;24075;-74
2022/05/09 19:37:00;;;;;;;;;;;21.20;88.30;;;;;;8406301;28;20257;-74
2022/05/09 19:41:10;;;;;;;;;;;21.00;88.40;;;;;;8403914;28;20264;-74
2022/05/09 19:45:18;;;;;;;;;;;20.90;86.90;;;;;;8407301;28;19920;-74
2022/05/09 19:49:23;;;;;;;;;;;20.80;86.50;;;;;;8405426;28;19944;-73
2022/05/09 19:57:45;;;;;;;;;;;20.50;86.40;;;;;;8404899;28;19931;-74
2022/05/09 20:01:47;;;;;;;;;;;20.40;86.20;;;;;;8405483;28;19963;-74
2022/05/09 20:05:49;;;;;;;;;;;20.20;86.20;;;;;;8405759;28;19920;-74
2022/05/09 20:09:50;;;;;;;;;;;20.10;86.30;;;;;;8405031;28;19924;-75
2022/05/09 20:13:52;;;;;;;;;;;20.00;86.10;;;;;;8408572;28;19945;-74
2022/05/09 20:17:54;;;;;;;;;;;19.90;86.10;;;;;;8404869;28;19982;-74
2022/05/09 20:21:57;;;;;;;;;;;19.80;86.20;;;;;;8407952;28;19935;-74
2022/05/09 20:30:18;;;;;;;;;;;19.60;86.20;;;;;;8405648;28;20256;-74
2022/05/09 20:34:20;;;;;;;;;;;19.40;86.40;;;;;;8400633;28;19982;-75
2022/05/09 20:38:27;;;;;;;;;;;19.30;86.30;;;;;;8409502;28;19976;-75
2022/05/09 20:42:29;;;;;;;;;;;19.20;86.20;;;;;;8403987;28;20363;-74
2022/05/09 20:46:32;;;;;;;;;;;19.10;86.50;;;;;;8406721;28;19920;-74
2022/05/09 20:50:35;;;;;;;;;;;19.00;86.60;;;;;;8404369;28;19975;-74
2022/05/09 20:54:36;;;;;;;;;;;18.90;86.60;;;;;;8402996;28;19928;-74
2022/05/09 20:58:38;;;;;;;;;;;18.80;86.90;;;;;;8405832;28;19924;-74
2022/05/09 21:02:40;;;;;;;;;;;18.70;86.70;;;;;;8416998;28;19927;-74
2022/05/09 21:06:45;;;;;;;;;;;18.60;86.80;;;;;;8427155;28;19936;-75
2022/05/09 21:10:48;;;;;;;;;;;18.50;86.70;;;;;;8424851;28;19928;-75
2022/05/09 21:14:51;;;;;;;;;;;18.50;86.80;;;;;;8424894;28;19977;-75
2022/05/09 21:18:53;;;;;;;;;;;18.40;86.90;;;;;;8427532;28;20302;-74
2022/05/09 21:22:57;;;;;;;;;;;18.30;87.70;;;;;;8421079;28;19928;-75
2022/05/09 21:27:00;;;;;;;;;;;18.20;87.20;;;;;;8432429;28;20364;-75
2022/05/09 21:31:02;;;;;;;;;;;18.10;87.10;;;;;;8427239;28;19920;-74
2022/05/09 21:35:04;;;;;;;;;;;18.00;87.90;;;;;;8417788;28;20283;-75
2022/05/09 21:43:30;;;;;;;;;;;17.90;87.50;;;;;;8434277;28;19920;-75
2022/05/09 21:47:32;;;;;;;;;;;17.80;87.90;;;;;;8431068;28;19939;-75
2022/05/09 21:51:34;;;;;;;;;;;17.70;87.70;;;;;;8420889;28;19920;-75
2022/05/09 21:55:36;;;;;;;;;;;17.50;87.60;;;;;;8424392;28;19931;-74
2022/05/09 21:59:38;;;;;;;;;;;17.40;87.60;;;;;;8430268;28;19919;-75
2022/05/09 22:03:40;;;;;;;;;;;17.30;87.40;;;;;;8422914;28;19920;-75
2022/05/09 22:07:42;;;;;;;;;;;17.20;87.80;;;;;;8422204;28;19920;-75
2022/05/09 22:11:44;;;;;;;;;;;17.20;88.00;;;;;;8415812;28;19920;-76
2022/05/09 22:15:45;;;;;;;;;;;17.10;88.10;;;;;;8422727;28;19934;-75
2022/05/09 22:19:47;;;;;;;;;;;17.10;87.90;;;;;;8424152;28;19931;-75
2022/05/09 22:23:49;;;;;;;;;;;17.20;87.90;;;;;;8448311;27;19971;-75
2022/05/09 22:27:50;;;;;;;;;;;17.20;88.50;;;;;;8426733;28;19924;-75
2022/05/09 22:31:53;;;;;;;;;;;17.10;88.10;;;;;;8418770;28;19920;-75
2022/05/09 22:35:55;;;;;;;;;;;17.10;88.00;;;;;;8433775;28;20420;-75
2022/05/09 22:39:57;;;;;;;;;;;17.00;88.10;;;;;;8426376;28;20387;-74
2022/05/09 22:43:59;;;;;;;;;;;17.00;88.30;;;;;;8424460;28;19972;-77
2022/05/09 22:48:03;;;;;;;;;;;16.90;88.40;;;;;;8422189;28;20390;-75
2022/05/09 22:52:05;;;;;;;;;;;16.90;88.30;;;;;;8419263;28;20388;-75
2022/05/09 22:56:06;;;;;;;;;;;16.80;88.50;;;;;;8434294;28;19927;-75
2022/05/09 23:00:11;;;;;;;;;;;16.80;88.60;;;;;;8430053;28;19920;-74
2022/05/09 23:04:17;;;;;;;;;;;16.70;89.30;;;;;;8431099;28;19942;-75
2022/05/09 23:08:18;;;;;;;;;;;16.60;89.50;;;;;;8430003;28;19920;-75
2022/05/09 23:12:20;;;;;;;;;;;16.60;88.70;;;;;;8432801;28;19920;-75
2022/05/09 23:16:22;;;;;;;;;;;16.50;88.80;;;;;;8436674;28;19928;-75
2022/05/09 23:20:26;;;;;;;;;;;16.40;88.90;;;;;;8427096;28;19928;-75
2022/05/09 23:24:28;;;;;;;;;;;16.40;88.60;;;;;;8432768;28;19939;-75
2022/05/09 23:28:30;;;;;;;;;;;16.30;88.70;;;;;;8430224;28;19928;-76
2022/05/09 23:32:32;;;;;;;;;;;16.20;88.60;;;;;;8437846;28;19919;-75
2022/05/09 23:36:33;;;;;;;;;;;16.20;88.70;;;;;;8426394;28;20042;-74
2022/05/09 23:40:35;;;;;;;;;;;16.10;88.80;;;;;;8428912;28;19939;-75
2022/05/09 23:44:37;;;;;;;;;;;16.00;88.90;;;;;;8439704;28;19928;-75
2022/05/09 23:48:41;;;;;;;;;;;15.90;88.70;;;;;;8427173;28;19919;-74
2022/05/09 23:52:42;;;;;;;;;;;15.90;89.00;;;;;;8428314;28;20304;-74
2022/05/09 23:56:44;;;;;;;;;;;15.80;88.80;;;;;;8432559;28;19920;-75
